Cheyenne, Wyoming
Current Conditions -  °F | °C
As of 3:53 PM on Monday 24 Nov 2014 (Local Time) from KCYS Reporting Station
Unknown Precip Unknown Precip  
Wind Chill: 15°   Ceiling: 7500
Heat Index: 28°   Visibility: 5mi
Dew Point: 17°   Wind: 18mph
Humidity: 63%   Direction: 320°NW
Pressure: 30.07"   Gusts: 25mph
Location:  41.13°N, 104.81°W
Report Text: KCYS 242253Z 32016G22KT 5SM UP FEW035 BKN075 OVC100 M02/M08 A3007 RMK AO2 PK WND 31031/2214 WSHFT 2209 UPE2158B47SNB2158E47 SLP216 P0000 T10221083
Loading
Personal Weather Stations






























Interactive Weather Map New forecast layout! Learn more

10-Day Weather Forecast

Advertisements
Track Severe Weather on mobile